Time;durP1;ratioP1;P1;durP2;ratioP2;P2;SDS_P1;SDS_P2;PMS_P1;PMS_P2;Temp;Humidity;BMP_temperature;BMP_pressure;BME280_temperature;BME280_humidity;BME280_pressure;Samples;Min_cycle;Max_cycle;Signal;HPM_P1;HPM_P2
2021/07/02 00:00:26;;;;;;;;;;;;;;;-142.75;70.33;77068.34;5057405;28;19916;-82
2021/07/02 00:02:51;;;;;;;;;;;;;;;-142.75;70.56;77066.38;5060603;28;19917;-83
2021/07/02 00:05:16;;;;;;;;;;;;;;;-142.75;70.58;77070.31;5050848;28;19960;-83
2021/07/02 00:07:42;;;;;;;;;;;;;;;-142.75;70.57;77072.28;5051127;28;20363;-83
2021/07/02 00:10:07;;;;;;;;;;;;;;;-142.75;70.70;77072.28;5064453;28;19917;-81
2021/07/02 00:12:33;;;;;;;;;;;;;;;-142.75;70.64;77068.34;5062492;28;20012;-81
2021/07/02 00:14:58;;;;;;;;;;;;;;;-142.75;70.54;77070.31;5052589;28;20011;-81
2021/07/02 00:17:23;;;;;;;;;;;;;;;-142.75;70.67;77070.31;5051038;28;19920;-81
2021/07/02 00:19:48;;;;;;;;;;;;;;;-142.75;70.52;77074.25;5065209;28;20287;-80
2021/07/02 00:22:14;;;;;;;;;;;;;;;-142.75;70.28;77072.28;5065350;28;19917;-80
2021/07/02 00:24:39;;;;;;;;;;;;;;;-142.75;70.25;77066.38;5051185;28;19962;-84
2021/07/02 00:27:04;;;;;;;;;;;;;;;-142.75;70.03;77070.31;5053109;28;19938;-81
2021/07/02 00:29:29;;;;;;;;;;;;;;;-142.75;69.44;77066.38;5059342;28;19920;-82
2021/07/02 00:31:54;;;;;;;;;;;;;;;-142.75;69.26;77060.47;5056780;28;20268;-82
2021/07/02 00:34:20;;;;;;;;;;;;;;;-142.75;68.94;77058.50;5060352;28;19920;-82
2021/07/02 00:36:45;;;;;;;;;;;;;;;-142.75;68.72;77056.53;5052023;28;19917;-80
2021/07/02 00:39:10;;;;;;;;;;;;;;;-142.75;69.12;77054.56;5062590;28;19916;-80
2021/07/02 00:41:35;;;;;;;;;;;;;;;-142.75;69.17;77056.53;5048856;28;19972;-80
2021/07/02 00:44:01;;;;;;;;;;;;;;;-142.75;69.01;77052.59;5051257;28;19939;-80
2021/07/02 00:46:26;;;;;;;;;;;;;;;-142.75;69.32;77054.56;5061552;28;19923;-80
2021/07/02 00:48:51;;;;;;;;;;;;;;;-142.75;68.85;77050.63;5053530;28;19927;-80
2021/07/02 00:51:17;;;;;;;;;;;;;;;-142.75;69.24;77054.56;5058436;28;19965;-80
2021/07/02 00:53:43;;;;;;;;;;;;;;;-142.75;69.54;77056.53;5064222;28;19971;-80
2021/07/02 00:56:12;;;;;;;;;;;;;;;-142.75;69.17;77058.50;5068164;28;20074;-78
2021/07/02 00:58:37;;;;;;;;;;;;;;;-142.75;69.43;77058.50;5066109;28;19924;-79
2021/07/02 01:01:04;;;;;;;;;;;;;;;-142.75;69.96;77052.59;5049012;28;19916;-79
2021/07/02 01:03:29;;;;;;;;;;;;;;;-142.75;69.77;77058.50;5058181;28;19916;-80
2021/07/02 01:05:54;;;;;;;;;;;;;;;-142.75;70.12;77056.53;5049251;28;19924;-80
2021/07/02 01:08:20;;;;;;;;;;;;;;;-142.75;69.98;77056.53;5065673;28;19921;-79
2021/07/02 01:10:45;;;;;;;;;;;;;;;-142.75;70.06;77058.50;5063032;28;19917;-81
2021/07/02 01:13:11;;;;;;;;;;;;;;;-142.75;69.82;77062.44;5050121;28;19940;-83
2021/07/02 01:15:36;;;;;;;;;;;;;;;-142.75;69.88;77062.44;5063203;28;20420;-80
2021/07/02 01:18:05;;;;;;;;;;;;;;;-142.75;70.38;77056.53;5050107;28;19916;-80
2021/07/02 01:20:30;;;;;;;;;;;;;;;-142.75;69.90;77058.50;5057811;28;19971;-81
2021/07/02 01:22:56;;;;;;;;;;;;;;;-142.75;69.90;77058.50;5061366;28;19917;-80
2021/07/02 01:25:23;;;;;;;;;;;;;;;-142.75;69.84;77058.50;5062191;28;20350;-80
2021/07/02 01:27:48;;;;;;;;;;;;;;;-142.75;70.12;77048.66;5060636;28;19920;-81
2021/07/02 01:30:13;;;;;;;;;;;;;;;-142.75;69.90;77054.56;5063021;28;19930;-81
2021/07/02 01:32:39;;;;;;;;;;;;;;;-142.75;70.14;77054.56;5059812;28;20333;-79
2021/07/02 01:35:05;;;;;;;;;;;;;;;-142.75;70.37;77054.56;5057595;28;19931;-82
2021/07/02 01:37:30;;;;;;;;;;;;;;;-142.75;70.49;77050.63;5050348;28;20007;-81
2021/07/02 01:39:55;;;;;;;;;;;;;;;-142.75;70.79;77048.66;5057326;28;19925;-81
2021/07/02 01:42:20;;;;;;;;;;;;;;;-142.75;70.98;77054.56;5059190;28;19924;-81
2021/07/02 01:44:45;;;;;;;;;;;;;;;-142.75;71.16;77054.56;5058334;28;19916;-81
2021/07/02 01:47:11;;;;;;;;;;;;;;;-142.75;71.29;77054.56;5049545;28;20051;-80
2021/07/02 01:49:36;;;;;;;;;;;;;;;-142.75;71.37;77050.63;5052180;28;19920;-80
2021/07/02 01:52:01;;;;;;;;;;;;;;;-142.75;71.04;77058.50;5064916;28;19929;-81
2021/07/02 01:54:27;;;;;;;;;;;;;;;-142.75;71.07;77054.56;5051345;28;20504;-81
2021/07/02 01:56:52;;;;;;;;;;;;;;;-142.75;70.86;77050.63;5048818;28;20271;-81
2021/07/02 01:59:18;;;;;;;;;;;;;;;-142.75;71.15;77052.59;5056555;28;19939;-82
2021/07/02 02:01:44;;;;;;;;;;;;;;;-142.75;71.07;77042.75;5051636;28;20003;-80
2021/07/02 02:04:10;;;;;;;;;;;;;;;-142.75;70.67;77046.69;5051634;28;19970;-77
2021/07/02 02:06:35;;;;;;;;;;;;;;;-142.75;70.86;77044.72;5065664;28;19916;-81
2021/07/02 02:09:00;;;;;;;;;;;;;;;-142.75;71.09;77046.69;5054082;28;19920;-80
2021/07/02 02:11:25;;;;;;;;;;;;;;;-142.75;71.47;77048.66;5061333;28;20364;-78
2021/07/02 02:13:50;;;;;;;;;;;;;;;-142.75;71.43;77050.63;5058794;28;19917;-79
2021/07/02 02:16:16;;;;;;;;;;;;;;;-142.75;71.29;77040.78;5064528;28;19916;-77
2021/07/02 02:18:41;;;;;;;;;;;;;;;-142.75;71.48;77044.72;5063013;28;19917;-79
2021/07/02 02:21:06;;;;;;;;;;;;;;;-142.75;71.52;77038.81;5053257;28;19916;-80
2021/07/02 02:23:31;;;;;;;;;;;;;;;-142.75;71.76;77046.69;5060434;28;20065;-81
2021/07/02 02:25:56;;;;;;;;;;;;;;;-142.75;71.83;77044.72;5060975;28;19969;-78
2021/07/02 02:28:21;;;;;;;;;;;;;;;-142.75;71.67;77046.69;5069958;28;19979;-80
2021/07/02 02:30:47;;;;;;;;;;;;;;;-142.75;71.72;77042.75;5061578;28;19917;-80
2021/07/02 02:33:12;;;;;;;;;;;;;;;-142.75;71.66;77042.75;5061764;28;19927;-83
2021/07/02 02:35:37;;;;;;;;;;;;;;;-142.75;71.55;77040.78;5065448;28;19970;-83
2021/07/02 02:38:03;;;;;;;;;;;;;;;-142.75;71.39;77034.88;5063608;28;20370;-81
2021/07/02 02:40:28;;;;;;;;;;;;;;;-142.75;71.36;77032.91;5070900;28;19920;-79
2021/07/02 02:42:53;;;;;;;;;;;;;;;-142.75;71.53;77036.84;5053722;28;19924;-80
2021/07/02 02:45:18;;;;;;;;;;;;;;;-142.75;71.69;77040.78;5062297;28;20417;-80
2021/07/02 02:47:44;;;;;;;;;;;;;;;-142.75;71.81;77042.75;5061465;28;20502;-79
2021/07/02 02:50:09;;;;;;;;;;;;;;;-142.75;71.72;77044.72;5050627;28;19921;-80
2021/07/02 02:52:34;;;;;;;;;;;;;;;-142.75;71.90;77042.75;5052904;28;19921;-80
2021/07/02 02:54:59;;;;;;;;;;;;;;;-142.75;71.87;77040.78;5053060;28;19917;-81
2021/07/02 02:57:25;;;;;;;;;;;;;;;-142.75;71.99;77042.75;5065772;28;19916;-78
2021/07/02 02:59:50;;;;;;;;;;;;;;;-142.75;72.26;77038.81;5051879;28;19916;-85
2021/07/02 03:02:15;;;;;;;;;;;;;;;-142.75;72.42;77042.75;5061259;28;19924;-80
2021/07/02 03:04:40;;;;;;;;;;;;;;;-142.75;72.51;77040.78;5051316;28;20003;-81
2021/07/02 03:07:06;;;;;;;;;;;;;;;-142.75;72.45;77042.75;5063992;28;20327;-81
2021/07/02 03:09:31;;;;;;;;;;;;;;;-142.75;72.58;77042.75;5050939;28;20012;-79
2021/07/02 03:11:57;;;;;;;;;;;;;;;-142.75;72.59;77038.81;5060764;28;19916;-80
2021/07/02 03:14:22;;;;;;;;;;;;;;;-142.75;72.82;77040.78;5061751;28;19944;-79
2021/07/02 03:16:48;;;;;;;;;;;;;;;-142.75;72.46;77034.88;5053546;28;19923;-78
2021/07/02 03:19:13;;;;;;;;;;;;;;;-142.75;72.59;77030.94;5061185;28;20397;-80
2021/07/02 03:21:38;;;;;;;;;;;;;;;-142.75;72.64;77038.81;5061831;28;19995;-78
2021/07/02 03:24:04;;;;;;;;;;;;;;;-142.75;72.73;77042.75;5063761;28;19917;-80
2021/07/02 03:26:29;;;;;;;;;;;;;;;-142.75;72.89;77036.84;5064440;28;20003;-80
2021/07/02 03:28:55;;;;;;;;;;;;;;;-142.75;73.06;77036.84;5064752;28;19970;-81
2021/07/02 03:31:20;;;;;;;;;;;;;;;-142.75;73.31;77038.81;5064310;28;20374;-83
2021/07/02 03:33:45;;;;;;;;;;;;;;;-142.75;73.42;77036.84;5061677;28;19955;-83
2021/07/02 03:36:10;;;;;;;;;;;;;;;-142.75;73.45;77034.88;5052923;28;20378;-83
2021/07/02 03:38:35;;;;;;;;;;;;;;;-142.75;73.33;77036.84;5063335;28;20353;-81
2021/07/02 03:41:01;;;;;;;;;;;;;;;-142.75;73.42;77040.78;5053539;28;19916;-82
2021/07/02 03:43:26;;;;;;;;;;;;;;;-142.75;73.53;77038.81;5066275;28;20003;-80
2021/07/02 03:45:51;;;;;;;;;;;;;;;-142.75;73.54;77032.91;5054399;28;19916;-81
2021/07/02 03:48:16;;;;;;;;;;;;;;;-142.75;73.66;77044.72;5064498;28;19921;-80
2021/07/02 03:50:42;;;;;;;;;;;;;;;-142.75;73.72;77040.78;5062887;28;20386;-81
2021/07/02 03:53:07;;;;;;;;;;;;;;;-142.75;73.61;77044.72;5070626;28;19977;-81
2021/07/02 03:55:32;;;;;;;;;;;;;;;-142.75;73.66;77044.72;5051031;28;19920;-80
2021/07/02 03:57:57;;;;;;;;;;;;;;;-142.75;73.54;77044.72;5059153;28;19917;-82
2021/07/02 04:00:22;;;;;;;;;;;;;;;-142.75;73.68;77042.75;5061353;28;19923;-82
2021/07/02 04:02:48;;;;;;;;;;;;;;;-142.75;73.71;77042.75;5062867;28;19916;-81
2021/07/02 04:05:13;;;;;;;;;;;;;;;-142.75;73.76;77038.81;5059320;28;19924;-81
2021/07/02 04:07:38;;;;;;;;;;;;;;;-142.75;73.30;77046.69;5062376;28;19925;-80
2021/07/02 04:10:03;;;;;;;;;;;;;;;-142.75;73.08;77046.69;5060875;28;19917;-80
2021/07/02 04:12:29;;;;;;;;;;;;;;;-142.75;73.31;77046.69;5051527;28;19916;-81
2021/07/02 04:14:54;;;;;;;;;;;;;;;-142.75;73.31;77044.72;5061978;28;19923;-80
2021/07/02 04:17:19;;;;;;;;;;;;;;;-142.75;73.27;77052.59;5064766;28;19923;-81
2021/07/02 04:19:44;;;;;;;;;;;;;;;-142.75;73.44;77058.50;5058642;28;20333;-82
2021/07/02 04:22:10;;;;;;;;;;;;;;;-142.75;73.69;77050.63;5064524;28;20302;-81
2021/07/02 04:24:35;;;;;;;;;;;;;;;-142.75;73.96;77052.59;5049293;28;20397;-79
2021/07/02 04:27:00;;;;;;;;;;;;;;;-142.75;74.10;77050.63;5055686;28;19917;-80
2021/07/02 04:29:26;;;;;;;;;;;;;;;-142.75;74.19;77052.59;5053163;28;20339;-81
2021/07/02 04:31:51;;;;;;;;;;;;;;;-142.75;74.52;77056.53;5066026;22;19925;-78
2021/07/02 04:34:17;;;;;;;;;;;;;;;-142.75;74.79;77060.47;5030447;28;19944;-79
2021/07/02 04:36:42;;;;;;;;;;;;;;;-142.75;74.87;77062.44;5030419;28;19916;-79
2021/07/02 04:39:08;;;;;;;;;;;;;;;-142.75;75.05;77060.47;5029351;28;19917;-79
2021/07/02 04:41:33;;;;;;;;;;;;;;;-142.75;75.30;77062.44;5048567;28;19916;-79
2021/07/02 04:43:58;;;;;;;;;;;;;;;-142.75;75.27;77066.38;5031998;28;19979;-80
2021/07/02 04:46:23;;;;;;;;;;;;;;;-142.75;75.42;77060.47;5029398;28;20355;-79
2021/07/02 04:48:48;;;;;;;;;;;;;;;-142.75;75.68;77060.47;5030572;28;19921;-80
2021/07/02 04:51:14;;;;;;;;;;;;;;;-142.75;75.76;77062.44;5030466;28;20007;-80
2021/07/02 04:53:39;;;;;;;;;;;;;;;-142.75;75.67;77062.44;5029260;28;20170;-81
2021/07/02 04:56:05;;;;;;;;;;;;;;;-142.75;75.69;77056.53;5048566;28;19917;-83
2021/07/02 04:58:31;;;;;;;;;;;;;;;-142.75;75.87;77058.50;5048686;28;19916;-81
2021/07/02 05:00:56;;;;;;;;;;;;;;;-142.75;75.89;77056.53;5031396;28;19916;-80
2021/07/02 05:03:21;;;;;;;;;;;;;;;-142.75;75.99;77056.53;5029436;28;19923;-81
2021/07/02 05:05:47;;;;;;;;;;;;;;;-142.75;76.09;77054.56;5031323;28;20011;-81
2021/07/02 05:08:12;;;;;;;;;;;;;;;-142.75;76.13;77056.53;5029205;28;19983;-80
2021/07/02 05:10:37;;;;;;;;;;;;;;;-142.75;76.28;77058.50;5048351;28;19962;-80
2021/07/02 05:13:03;;;;;;;;;;;;;;;-142.75;76.45;77050.63;5048675;28;19956;-80
2021/07/02 05:15:29;;;;;;;;;;;;;;;-142.75;76.40;77046.69;5031504;28;20401;-80
2021/07/02 05:17:54;;;;;;;;;;;;;;;-142.75;76.37;77050.63;5048628;28;20394;-79
2021/07/02 05:20:19;;;;;;;;;;;;;;;-142.75;76.32;77050.63;5030428;28;20074;-80
2021/07/02 05:22:45;;;;;;;;;;;;;;;-142.75;76.39;77046.69;5030564;28;19973;-80
2021/07/02 05:25:10;;;;;;;;;;;;;;;-142.75;76.51;77050.63;5048367;28;19928;-80
2021/07/02 05:27:37;;;;;;;;;;;;;;;-142.75;76.52;77048.66;5029846;28;19924;-80
2021/07/02 05:30:02;;;;;;;;;;;;;;;-142.75;76.58;77036.84;5029971;28;20006;-78
2021/07/02 05:32:27;;;;;;;;;;;;;;;-142.75;76.67;77036.84;5030666;28;20397;-81
2021/07/02 05:34:52;;;;;;;;;;;;;;;-142.75;76.72;77032.91;5030050;28;19921;-79
2021/07/02 05:37:18;;;;;;;;;;;;;;;-142.75;76.79;77027.00;5029408;28;20405;-79
2021/07/02 05:39:43;;;;;;;;;;;;;;;-142.75;76.84;77027.00;5048626;28;19959;-79
2021/07/02 05:42:08;;;;;;;;;;;;;;;-142.75;76.78;77013.22;5048222;28;19917;-78
2021/07/02 05:44:33;;;;;;;;;;;;;;;-142.75;76.78;77013.22;5031109;28;19917;-78
2021/07/02 05:46:59;;;;;;;;;;;;;;;-142.75;76.72;77023.06;5029524;28;19923;-79
2021/07/02 05:49:24;;;;;;;;;;;;;;;-142.75;76.67;77017.16;5048387;28;19971;-78
2021/07/02 05:51:49;;;;;;;;;;;;;;;-142.75;76.61;77017.16;5050299;28;19924;-79
2021/07/02 05:54:14;;;;;;;;;;;;;;;-142.75;76.48;77025.03;5034731;28;19923;-78
2021/07/02 05:56:40;;;;;;;;;;;;;;;-142.75;76.41;77021.09;5034930;28;19925;-78
2021/07/02 05:59:05;;;;;;;;;;;;;;;-142.75;76.31;77019.13;5053074;28;19920;-78
2021/07/02 06:01:30;;;;;;;;;;;;;;;-142.75;76.33;77027.00;5052020;28;19916;-79
2021/07/02 06:03:56;;;;;;;;;;;;;;;-142.75;76.45;77034.88;5033807;28;19943;-78
2021/07/02 06:06:21;;;;;;;;;;;;;;;-142.75;76.34;77034.88;5034095;28;19921;-79
2021/07/02 06:08:47;;;;;;;;;;;;;;;-142.75;76.25;77038.81;5033273;28;19921;-78
2021/07/02 06:11:12;;;;;;;;;;;;;;;-142.75;76.25;77038.81;5051147;28;20378;-78
2021/07/02 06:13:37;;;;;;;;;;;;;;;-142.75;76.44;77034.88;5052070;28;19913;-81
2021/07/02 06:16:03;;;;;;;;;;;;;;;-142.75;76.55;77032.91;5034131;28;19947;-78
2021/07/02 06:18:28;;;;;;;;;;;;;;;-142.75;76.48;77030.94;5052499;28;19916;-78
2021/07/02 06:20:54;;;;;;;;;;;;;;;-142.75;76.54;77025.03;5050981;28;20126;-78
2021/07/02 06:23:19;;;;;;;;;;;;;;;-142.75;76.55;77027.00;5052087;28;20453;-79
2021/07/02 06:25:45;;;;;;;;;;;;;;;-142.75;76.60;77023.06;5051654;28;19920;-78
2021/07/02 06:28:10;;;;;;;;;;;;;;;-142.75;76.61;77023.06;5033308;28;20461;-79
2021/07/02 06:30:35;;;;;;;;;;;;;;;-142.75;76.68;77011.25;5051275;28;19931;-79
2021/07/02 06:33:01;;;;;;;;;;;;;;;-142.75;76.74;77009.28;5051486;28;20015;-78
2021/07/02 06:35:26;;;;;;;;;;;;;;;-142.75;76.75;77003.38;5051582;28;19924;-78
2021/07/02 06:37:51;;;;;;;;;;;;;;;-142.75;76.75;76995.50;5051626;28;19940;-79
2021/07/02 06:40:18;;;;;;;;;;;;;;;-142.75;76.62;76993.53;5032155;28;20018;-78
2021/07/02 06:42:43;;;;;;;;;;;;;;;-142.75;76.62;76987.63;5033301;28;19925;-78
2021/07/02 06:45:08;;;;;;;;;;;;;;;-142.75;76.55;76985.66;5051477;28;20034;-77
2021/07/02 06:47:34;;;;;;;;;;;;;;;-142.75;76.58;76979.75;5050264;28;20011;-77
2021/07/02 06:49:59;;;;;;;;;;;;;;;-142.75;76.56;76975.81;5050313;28;19921;-77
2021/07/02 06:52:24;;;;;;;;;;;;;;;-142.75;76.61;76975.81;5049975;28;19917;-77
2021/07/02 06:54:49;;;;;;;;;;;;;;;-142.75;76.48;76971.88;5049805;28;19921;-78
2021/07/02 06:57:15;;;;;;;;;;;;;;;-142.75;76.46;76967.94;5032695;28;19928;-77
2021/07/02 06:59:41;;;;;;;;;;;;;;;-142.75;76.45;76971.88;5032046;28;19925;-78
2021/07/02 07:02:10;;;;;;;;;;;;;;;-142.75;76.40;76971.88;5031024;28;19925;-78
2021/07/02 07:04:35;;;;;;;;;;;;;;;-142.75;76.36;76975.81;5049960;28;19924;-78
2021/07/02 07:07:04;;;;;;;;;;;;;;;-142.75;76.39;76979.75;5030577;28;20294;-78
2021/07/02 07:09:31;;;;;;;;;;;;;;;-142.75;76.40;76981.72;5049344;28;20015;-78
2021/07/02 07:11:57;;;;;;;;;;;;;;;-142.75;76.48;76979.75;5030507;28;19928;-78
2021/07/02 07:14:22;;;;;;;;;;;;;;;-142.75;76.30;76975.81;5051064;28;19924;-78
2021/07/02 07:16:47;;;;;;;;;;;;;;;-142.75;76.21;76975.81;5050728;28;19992;-77
2021/07/02 07:19:12;;;;;;;;;;;;;;;-142.75;76.25;76975.81;5051373;28;19924;-77
2021/07/02 07:21:38;;;;;;;;;;;;;;;-142.75;76.28;76981.72;5032657;28;19916;-77
2021/07/02 07:24:03;;;;;;;;;;;;;;;-142.75;76.25;76977.78;5052949;28;20309;-78
2021/07/02 07:26:28;;;;;;;;;;;;;;;-142.75;76.18;76973.84;5033749;28;19967;-78
2021/07/02 07:28:53;;;;;;;;;;;;;;;-142.75;76.25;76975.81;5051511;28;19925;-78
2021/07/02 07:31:19;;;;;;;;;;;;;;;-142.75;76.31;76967.94;5033718;28;19928;-77
2021/07/02 07:33:46;;;;;;;;;;;;;;;-142.75;76.29;76960.06;5052094;28;19974;-78
2021/07/02 07:36:15;;;;;;;;;;;;;;;-142.75;76.20;76950.22;5051985;28;19923;-78
2021/07/02 07:38:40;;;;;;;;;;;;;;;-142.75;76.09;76936.44;5033791;28;19995;-79
2021/07/02 07:41:05;;;;;;;;;;;;;;;-142.75;75.92;76924.63;5034530;28;20386;-79
2021/07/02 07:43:30;;;;;;;;;;;;;;;-142.75;75.72;76914.78;5052583;28;20442;-78
2021/07/02 07:45:56;;;;;;;;;;;;;;;-142.75;75.18;76902.97;5054200;28;19916;-78
2021/07/02 07:48:21;;;;;;;;;;;;;;;-142.75;74.91;76889.19;5054644;28;19944;-79
2021/07/02 07:50:50;;;;;;;;;;;;;;;-142.75;74.40;76851.78;5054434;28;19916;-80
2021/07/02 07:53:15;;;;;;;;;;;;;;;-142.75;74.23;76792.75;5037553;28;19917;-79
2021/07/02 07:55:40;;;;;;;;;;;;;;;-142.75;73.50;76739.59;5055718;28;19940;-78
2021/07/02 07:58:06;;;;;;;;;;;;;;;-142.75;71.37;76676.59;5054190;28;19971;-79
2021/07/02 08:00:31;;;;;;;;;;;;;;;-142.75;70.07;76627.38;5054221;28;19962;-79
2021/07/02 08:02:57;;;;;;;;;;;;;;;-142.75;68.88;76574.22;5034462;28;20004;-79
2021/07/02 08:05:22;;;;;;;;;;;;;;;-142.75;67.25;76517.16;5033952;28;19939;-80
2021/07/02 08:07:47;;;;;;;;;;;;;;;-142.75;64.64;76460.06;5052397;28;19944;-80
2021/07/02 08:10:14;;;;;;;;;;;;;;;-142.75;63.48;76452.19;5033657;28;19970;-80
2021/07/02 08:12:39;;;;;;;;;;;;;;;-142.75;62.12;76493.53;5052353;28;20043;-80
2021/07/02 08:15:05;;;;;;;;;;;;;;;-142.75;62.17;76556.50;5032896;28;20437;-80
2021/07/02 08:17:31;;;;;;;;;;;;;;;-142.75;64.26;76591.94;5054090;28;20402;-81
2021/07/02 08:19:56;;;;;;;;;;;;;;;-142.75;65.83;76617.53;5053869;28;20016;-79
2021/07/02 08:22:22;;;;;;;;;;;;;;;-142.75;64.81;76637.22;5034723;28;19971;-79
2021/07/02 08:24:47;;;;;;;;;;;;;;;-142.75;66.10;76660.84;5036269;28;20366;-79
2021/07/02 08:27:12;;;;;;;;;;;;;;;-142.75;66.14;76676.59;5035249;28;19917;-80
2021/07/02 08:29:38;;;;;;;;;;;;;;;-142.75;66.45;76700.22;5054080;28;19921;-80
2021/07/02 08:32:03;;;;;;;;;;;;;;;-142.75;66.63;76719.91;5053874;28;20294;-81
2021/07/02 08:34:28;;;;;;;;;;;;;;;-142.75;66.86;76739.59;5034529;28;20261;-81
2021/07/02 08:36:53;;;;;;;;;;;;;;;-142.75;67.63;76751.41;5033925;28;19960;-80
2021/07/02 08:39:19;;;;;;;;;;;;;;;-142.75;68.18;76759.28;5034159;28;19917;-80
2021/07/02 08:41:44;;;;;;;;;;;;;;;-142.75;68.49;76765.19;5033297;28;19928;-81
2021/07/02 08:44:09;;;;;;;;;;;;;;;-142.75;68.83;76759.28;5033448;28;19917;-80
2021/07/02 08:46:35;;;;;;;;;;;;;;;-142.75;68.83;76763.22;5033840;28;20278;-81
2021/07/02 08:49:01;;;;;;;;;;;;;;;-142.75;68.58;76759.28;5033654;28;19974;-79
2021/07/02 08:51:26;;;;;;;;;;;;;;;-142.75;69.22;76751.41;5051125;28;20356;-80
2021/07/02 08:53:52;;;;;;;;;;;;;;;-142.75;68.63;76755.34;5034300;28;19928;-81
2021/07/02 08:56:18;;;;;;;;;;;;;;;-142.75;68.42;76747.47;5051571;28;19923;-81
2021/07/02 08:58:43;;;;;;;;;;;;;;;-142.75;68.40;76757.31;5050640;28;19917;-82
2021/07/02 09:01:08;;;;;;;;;;;;;;;-142.75;67.09;76763.22;5033088;28;20018;-81
2021/07/02 09:03:36;;;;;;;;;;;;;;;-142.75;67.31;76767.16;5051433;28;19923;-81
2021/07/02 09:06:11;;;;;;;;;;;;;;;-142.75;67.56;76759.28;5032611;28;19921;-80
2021/07/02 09:08:37;;;;;;;;;;;;;;;-142.75;67.85;76759.28;5050955;28;19924;-80
2021/07/02 09:11:03;;;;;;;;;;;;;;;-142.75;67.63;76743.53;5032033;28;19924;-81
2021/07/02 09:13:41;;;;;;;;;;;;;;;-142.75;68.06;76741.56;5050606;28;19916;-81
2021/07/02 09:16:19;;;;;;;;;;;;;;;-142.75;67.59;76739.59;5050255;28;19923;-80
2021/07/02 09:18:44;;;;;;;;;;;;;;;-142.75;67.11;76753.38;5032107;28;19956;-81
2021/07/02 09:21:21;;;;;;;;;;;;;;;-142.75;67.23;76759.28;5031936;28;19967;-80
2021/07/02 09:23:46;;;;;;;;;;;;;;;-142.75;66.50;76767.16;5049629;28;19999;-80
2021/07/02 09:26:31;;;;;;;;;;;;;;;-142.75;66.87;76775.03;5051973;28;20003;-80
2021/07/02 09:29:13;;;;;;;;;;;;;;;-142.75;67.29;76777.00;5035778;28;19925;-77
2021/07/02 09:31:38;;;;;;;;;;;;;;;-142.75;66.77;76794.69;5053170;28;19943;-80
2021/07/02 09:34:03;;;;;;;;;;;;;;;-142.75;67.04;76794.69;5054921;28;19920;-80
2021/07/02 09:36:29;;;;;;;;;;;;;;;-142.75;66.98;76796.69;5054432;28;20306;-80
2021/07/02 09:38:54;;;;;;;;;;;;;;;-142.75;67.10;76792.75;5035901;28;20379;-79
2021/07/02 09:41:31;;;;;;;;;;;;;;;-142.75;67.58;76790.78;5036160;28;19921;-80
2021/07/02 09:44:08;;;;;;;;;;;;;;;-142.75;67.34;76790.78;5054194;28;19917;-80
2021/07/02 09:46:35;;;;;;;;;;;;;;;-142.75;67.22;76782.91;5054997;28;20015;-80
2021/07/02 09:49:00;;;;;;;;;;;;;;;-142.75;67.83;76763.22;5036955;28;19940;-79
2021/07/02 09:51:27;;;;;;;;;;;;;;;-142.75;67.81;76755.34;5035283;28;19933;-79
2021/07/02 09:54:04;;;;;;;;;;;;;;;-142.75;66.76;76741.56;5037114;28;19916;-80
2021/07/02 09:56:29;;;;;;;;;;;;;;;-142.75;66.58;76743.53;5035660;28;19971;-79
2021/07/02 09:58:54;;;;;;;;;;;;;;;-142.75;64.38;76739.59;5036129;28;20402;-80
2021/07/02 10:01:25;;;;;;;;;;;;;;;-142.75;64.57;76743.53;5035991;28;19982;-79
2021/07/02 10:03:50;;;;;;;;;;;;;;;-142.75;64.76;76743.53;5054654;28;19917;-79
2021/07/02 10:06:19;;;;;;;;;;;;;;;-142.75;65.00;76749.44;5055959;28;20330;-79
2021/07/02 10:08:44;;;;;;;;;;;;;;;-142.75;65.49;76743.53;5051867;28;20413;-79
2021/07/02 10:11:11;;;;;;;;;;;;;;;-142.75;64.97;76737.63;5054765;28;19925;-79
2021/07/02 10:13:37;;;;;;;;;;;;;;;-142.75;64.57;76735.66;5052480;28;19917;-79
2021/07/02 10:16:05;;;;;;;;;;;;;;;-142.75;65.18;76723.84;5036614;28;20310;-80
2021/07/02 10:18:30;;;;;;;;;;;;;;;-142.75;61.72;76719.91;5036580;28;20393;-81
2021/07/02 10:20:58;;;;;;;;;;;;;;;-142.75;64.13;76715.97;5054907;28;19959;-79
2021/07/02 10:23:25;;;;;;;;;;;;;;;-142.75;63.96;76727.78;5055315;28;19920;-80
2021/07/02 10:25:51;;;;;;;;;;;;;;;-142.75;63.23;76717.94;5036118;28;19921;-79
2021/07/02 10:28:16;;;;;;;;;;;;;;;-142.75;63.86;76706.13;5054791;28;19924;-79
2021/07/02 10:30:42;;;;;;;;;;;;;;;-142.75;62.82;76702.19;5053850;28;19917;-80
2021/07/02 10:33:07;;;;;;;;;;;;;;;-142.75;62.84;76708.09;5037802;28;19966;-80
2021/07/02 10:35:35;;;;;;;;;;;;;;;-142.75;63.79;76714.00;5037686;28;20386;-79
2021/07/02 10:38:00;;;;;;;;;;;;;;;-142.75;63.91;76698.25;5059344;28;20344;-79
2021/07/02 10:40:33;;;;;;;;;;;;;;;-142.75;64.77;76688.41;5056699;28;19971;-80
2021/07/02 10:43:05;;;;;;;;;;;;;;;-142.75;63.23;76676.59;5054414;28;19921;-80
2021/07/02 10:45:30;;;;;;;;;;;;;;;-142.75;63.51;76660.84;5054039;28;19925;-79
2021/07/02 10:47:57;;;;;;;;;;;;;;;-142.75;61.74;76664.78;5054866;28;20408;-79
2021/07/02 10:50:34;;;;;;;;;;;;;;;-142.75;62.90;76664.78;5036100;28;19966;-80
2021/07/02 10:53:18;;;;;;;;;;;;;;;-142.75;61.78;76662.81;5054957;28;19916;-80
2021/07/02 10:55:43;;;;;;;;;;;;;;;-142.75;61.88;76651.00;5053187;28;19916;-80
2021/07/02 10:58:08;;;;;;;;;;;;;;;-142.75;61.87;76625.41;5036024;28;19923;-80
2021/07/02 11:00:54;;;;;;;;;;;;;;;-142.75;63.17;76605.72;5055798;28;20348;-80
2021/07/02 11:03:20;;;;;;;;;;;;;;;-142.75;63.39;76570.28;5053776;28;19962;-80
2021/07/02 11:05:45;;;;;;;;;;;;;;;-142.75;61.64;76552.56;5054338;28;19916;-79
2021/07/02 11:08:30;;;;;;;;;;;;;;;-142.75;60.78;76530.91;5053883;28;19932;-79
2021/07/02 11:10:57;;;;;;;;;;;;;;;-142.75;58.70;76527.00;5053580;28;19921;-80
2021/07/02 11:13:22;;;;;;;;;;;;;;;-142.75;60.91;76538.78;5054803;28;19917;-79
2021/07/02 11:16:01;;;;;;;;;;;;;;;-142.75;61.21;76528.97;5054330;28;19925;-80
2021/07/02 11:18:37;;;;;;;;;;;;;;;-142.75;59.60;76532.88;5053009;28;20272;-80
2021/07/02 11:21:12;;;;;;;;;;;;;;;-142.75;60.31;76528.97;5053715;28;19916;-79
2021/07/02 11:23:41;;;;;;;;;;;;;;;-142.75;60.16;76558.47;5034058;28;19917;-80
2021/07/02 11:26:08;;;;;;;;;;;;;;;-142.75;60.46;76544.69;5055253;28;19967;-81
2021/07/02 11:28:44;;;;;;;;;;;;;;;-142.75;59.25;76536.84;5036685;28;19943;-80
2021/07/02 11:31:11;;;;;;;;;;;;;;;-142.75;58.98;76538.78;5052888;28;19916;-80
2021/07/02 11:33:36;;;;;;;;;;;;;;;-142.75;59.01;76542.72;5054114;28;19940;-80
2021/07/02 11:36:02;;;;;;;;;;;;;;;-142.75;59.60;76532.88;5054525;28;19920;-81
2021/07/02 11:38:30;;;;;;;;;;;;;;;-142.75;59.97;76523.06;5036072;28;20146;-81
2021/07/02 11:41:06;;;;;;;;;;;;;;;-142.75;59.97;76499.44;5058885;22;19932;-83
2021/07/02 11:43:34;;;;;;;;;;;;;;;-142.75;59.15;76477.78;5050768;28;20000;-83
2021/07/02 11:46:04;;;;;;;;;;;;;;;-142.75;58.47;76452.19;5041591;28;19924;-82
2021/07/02 11:48:33;;;;;;;;;;;;;;;-142.75;58.43;76418.72;5052056;28;19925;-83
2021/07/02 11:50:58;;;;;;;;;;;;;;;-142.75;56.54;76420.69;5049277;28;19917;-82
2021/07/02 11:53:30;;;;;;;;;;;;;;;-142.75;56.67;76397.06;5037922;28;19986;-82
2021/07/02 11:56:10;;;;;;;;;;;;;;;-142.75;57.52;76383.28;5042215;28;20006;-82
2021/07/02 11:58:45;;;;;;;;;;;;;;;-142.75;56.32;76341.97;5037805;28;19920;-79
2021/07/02 12:01:12;;;;;;;;;;;;;;;-142.75;55.37;76298.66;5032686;28;20307;-80
2021/07/02 12:03:43;;;;;;;;;;;;;;;-142.75;55.12;76322.28;5042570;28;19924;-82
2021/07/02 12:06:08;;;;;;;;;;;;;;;-142.75;54.22;76326.22;5044529;28;19987;-81
2021/07/02 12:08:34;;;;;;;;;;;;;;;-142.75;53.52;76345.91;5040948;28;20000;-80
2021/07/02 12:11:04;;;;;;;;;;;;;;;-142.75;55.19;76330.16;5037230;28;19943;-83
2021/07/02 12:13:33;;;;;;;;;;;;;;;-142.75;53.84;76408.88;5041198;28;20003;-79
2021/07/02 12:16:03;;;;;;;;;;;;;;;-142.75;54.79;76363.59;5043789;28;19917;-79
2021/07/02 12:18:28;;;;;;;;;;;;;;;-142.75;56.10;76345.91;5047872;28;20428;-83
2021/07/02 12:21:13;;;;;;;;;;;;;;;-142.75;54.90;76351.81;5044771;28;19917;-83
2021/07/02 12:23:43;;;;;;;;;;;;;;;-142.75;53.03;76363.59;5034254;28;20003;-80